Georgia Highway — 7JCV — position and weather

sailwx.info

Track history (hours):
 
Tides and Currents Weather Stations Pressure Air Temp Water Temp Dewpoint Dewpoint Depression Visibility Wind Speed Wind Dir Waves Ship Positions

Georgia Highway

Last reported at 2015-Mar-03 06:29 UTC. Time now 2015-Mar-03 07:28 UTC.
Position N 36°32' W 009°06'.

Length 199 m; draft 9.2 m.

Type: Ship. MMSI: 432629000.

Date/timePositionNaut miles runAvg speedWind from/ knotsBaromVisibWave heightAir tempDewpointWater temp
2015-Mar-03 06:29N 36°32' W 009°06'1415.3
2015-Mar-03 05:33N 36°39' W 009°22'2214.9
2015-Mar-03 04:04N 36°58' W 009°35'1415.4
2015-Mar-03 03:08N 37°12' W 009°39'915.3
2015-Mar-03 02:33N 37°20' W 009°42'1615.1
2015-Mar-03 01:31N 37°36' W 009°47'1515.2
2015-Mar-03 00:32N 37°50' W 009°52'1515.2
2015-Mar-02 23:33N 38°05' W 009°56'1515.6
2015-Mar-02 22:34N 38°20' W 009°60'1615.6
2015-Mar-02 21:33N 38°35' W 010°05'1515.0
2015-Mar-02 20:33N 38°50' W 010°06'1515.2
2015-Mar-02 19:33N 39°05' W 010°07'1515.3
2015-Mar-02 18:32N 39°21' W 010°07'  
2015-Feb-28 10:33N 50°09' W 002°01'2115.3
2015-Feb-28 09:09N 50°15' W 001°29'1614.8
2015-Feb-28 08:06N 50°19' W 001°06'1114.2
2015-Feb-28 07:21N 50°22' W 000°49'1113.6
2015-Feb-28 06:32N 50°25' W 000°33'1813.3
2015-Feb-28 05:11N 50°29' W 000°05'813.1
2015-Feb-28 04:33N 50°32' E 000°07'1313.1
2015-Feb-28 03:33N 50°35' E 000°27'1413.6
2015-Feb-28 02:33N 50°40' E 000°47'1514.6
2015-Feb-28 01:33N 50°48' E 001°06'1515.0
2015-Feb-28 00:33N 50°59' E 001°23'1515.4
2015-Feb-27 23:34N 51°10' E 001°39'1414.3
2015-Feb-27 22:34N 51°21' E 001°54'1413.6
2015-Feb-27 21:33N 51°32' E 002°07'1413.7
2015-Feb-27 20:33N 51°43' E 002°20'1613.9
2015-Feb-27 19:24N 51°55' E 002°37'6015.3
2015-Feb-27 15:30N 52°43' E 003°37'1515.6
2015-Feb-27 14:33N 52°53' E 003°53'1514.9
2015-Feb-27 13:33N 53°03' E 004°12'1613.9
2015-Feb-27 12:26N 53°15' E 004°29'1314.1
2015-Feb-27 11:33N 53°27' E 004°35'1313.3
2015-Feb-27 10:33N 53°32' E 004°56'1414.3
2015-Feb-27 09:33N 53°38' E 005°18'1515.2
2015-Feb-27 08:33N 53°42' E 005°42'1615.5
2015-Feb-27 07:33N 53°47' E 006°07'1212.1
2015-Feb-27 06:33N 53°38' E 006°22'1413.5
2015-Feb-27 05:31N 53°32' E 006°44'1212.4
2015-Feb-27 04:33N 53°24' E 006°57'7 6.8
2015-Feb-27 03:33N 53°20' E 007°07'2 1.6
2015-Feb-27 02:27N 53°20' E 007°10'0 0.0
2015-Feb-27 01:33N 53°20' E 007°10'0 0.0
2015-Feb-27 00:33N 53°20' E 007°10'0 0.0
2015-Feb-26 23:27N 53°20' E 007°10'0 0.0
2015-Feb-26 22:33N 53°20' E 007°10'0 0.0
2015-Feb-26 21:33N 53°20' E 007°10'0 0.0
2015-Feb-26 20:30N 53°20' E 007°10'0 0.0
2015-Feb-26 19:33N 53°20' E 007°10'0 0.0
2015-Feb-26 18:33N 53°20' E 007°10'0 0.0
2015-Feb-26 17:33N 53°20' E 007°10'0 0.0
2015-Feb-26 16:33N 53°20' E 007°10'0 0.0
2015-Feb-26 15:30N 53°20' E 007°10'0 0.0
2015-Feb-26 14:33N 53°20' E 007°10'0 0.0
2015-Feb-26 13:33N 53°20' E 007°10'0 0.0
2015-Feb-26 12:33N 53°20' E 007°10'0 0.0
2015-Feb-26 11:33N 53°20' E 007°10'0 0.0
2015-Feb-26 10:33N 53°20' E 007°10'0 0.0
2015-Feb-26 09:30N 53°20' E 007°10'0 0.0
2015-Feb-26 08:33N 53°20' E 007°10'0 0.0
2015-Feb-26 07:33N 53°20' E 007°10'0 0.0
2015-Feb-26 06:33N 53°20' E 007°10'0 0.0
2015-Feb-26 05:33N 53°20' E 007°10'0 0.0
2015-Feb-26 04:33N 53°20' E 007°10'0 0.0
2015-Feb-26 03:33N 53°20' E 007°10'0 0.0
2015-Feb-26 02:33N 53°20' E 007°10'0 0.0
2015-Feb-26 01:30N 53°20' E 007°10'0 0.0
2015-Feb-26 00:33N 53°20' E 007°10'0 0.0
2015-Feb-25 23:27N 53°20' E 007°10'0 0.0
2015-Feb-25 22:33N 53°20' E 007°10'0 0.0
2015-Feb-25 21:33N 53°20' E 007°10'0 0.0
2015-Feb-25 20:30N 53°20' E 007°10'0 0.0
2015-Feb-25 19:33N 53°20' E 007°10'0 0.0
2015-Feb-25 18:30N 53°20' E 007°10'0 0.0
2015-Feb-25 17:33N 53°20' E 007°10'0 0.0
2015-Feb-25 16:33N 53°20' E 007°10'4 4.0
2015-Feb-25 15:33N 53°19' E 007°03'1111.3
2015-Feb-25 14:33N 53°28' E 006°51'8 7.6
2015-Feb-25 13:33N 53°33' E 006°41'9 8.5
2015-Feb-25 12:33N 53°37' E 006°28'8 8.2
2015-Feb-25 11:33N 53°38' E 006°15'10 9.5
2015-Feb-25 10:33N 53°42' E 006°00'7 7.2
2015-Feb-25 09:31N 53°47' E 006°10'3410.0
2015-Feb-25 06:06N 53°56' E 007°06'7 9.7
2015-Feb-25 05:22N 53°58' E 007°18'8 9.1
2015-Feb-25 04:31N 53°59' E 007°31'7 7.7
2015-Feb-25 03:33N 53°56' E 007°42'8 8.3
2015-Feb-25 02:32N 53°52' E 007°54'1313.0
2015-Feb-25 01:33N 53°45' E 008°12'1212.4
2015-Feb-25 00:33N 53°37' E 008°29'4 4.0
2015-Feb-24 23:33N 53°34' E 008°33'0 0.4
2015-Feb-24 22:31N 53°35' E 008°33'0 0.0
2015-Feb-24 21:31N 53°35' E 008°33'0 0.0
2015-Feb-24 20:31N 53°35' E 008°33'0 0.0
2015-Feb-24 19:31N 53°35' E 008°33'0 0.0
2015-Feb-24 18:31N 53°35' E 008°33'0 0.0
2015-Feb-24 17:31N 53°35' E 008°33'0 0.0
2015-Feb-24 16:31N 53°35' E 008°33'0 0.0
2015-Feb-24 15:31N 53°35' E 008°33'0 0.0
2015-Feb-24 14:31N 53°35' E 008°33'0 0.0
2015-Feb-24 13:31N 53°35' E 008°33'0 0.0
2015-Feb-24 12:31N 53°35' E 008°33'0 0.0
2015-Feb-24 11:31N 53°35' E 008°33'0 0.0
2015-Feb-24 10:31N 53°35' E 008°33'0 0.0
2015-Feb-24 09:31N 53°35' E 008°33'0 0.0
2015-Feb-24 08:31N 53°35' E 008°33'0 0.0
2015-Feb-24 07:31N 53°35' E 008°33'0 0.0
2015-Feb-24 06:31N 53°35' E 008°33'0 0.0
2015-Feb-24 05:31N 53°35' E 008°33'0 0.0
2015-Feb-24 04:31N 53°35' E 008°33'0 0.0
2015-Feb-24 03:31N 53°35' E 008°33'0 0.0
2015-Feb-24 02:31N 53°35' E 008°33'0 0.0
2015-Feb-24 01:31N 53°35' E 008°33'0 0.0
2015-Feb-24 00:31N 53°35' E 008°33'0 0.0
2015-Feb-23 23:31N 53°35' E 008°33'0 0.4
2015-Feb-23 22:33N 53°34' E 008°33'1 1.1
2015-Feb-23 21:33N 53°35' E 008°32'9 9.2
2015-Feb-23 20:33N 53°41' E 008°21'1111.2
2015-Feb-23 19:33N 53°49' E 008°07'1111.0
2015-Feb-23 18:33N 53°53' E 007°49'9 8.6
2015-Feb-23 17:33N 53°58' E 007°37'2 2.4
2015-Feb-23 16:33N 53°56' E 007°41'7 7.0
2015-Feb-23 15:32N 53°54' E 007°29'7 7.5
2015-Feb-23 14:33N 53°52' E 007°17'6 1.9
2015-Feb-23 11:16N 53°56' E 007°08'7 8.5
2015-Feb-23 10:26N 53°57' E 007°19'8 8.5
2015-Feb-23 09:31N 53°59' E 007°32'8 8.4
2015-Feb-23 08:31N 53°55' E 007°46'5 5.0
2015-Feb-23 07:31N 53°56' E 007°37'1313.1
2015-Feb-23 06:32N 53°53' E 007°16'3014.3
2015-Feb-23 04:27N 53°46' E 006°27'1111.8
2015-Feb-23 03:33N 53°46' E 006°09'6 5.7
2015-Feb-23 02:34N 53°50' E 006°15'3313.6
2015-Feb-23 00:09N 53°58' E 007°08'813.3
2015-Feb-22 23:32N 53°59' E 007°22'9 9.0
2015-Feb-22 22:33N 54°07' E 007°29'1414.4
2015-Feb-22 21:33N 54°20' E 007°19'1414.2
2015-Feb-22 20:33N 54°34' E 007°13'1413.9
2015-Feb-22 19:34N 54°47' E 007°07'1413.8
2015-Feb-22 18:33N 55°01' E 007°00'1413.8
2015-Feb-22 17:33N 55°14' E 006°60'1414.1
2015-Feb-22 16:33N 55°28' E 007°00'1414.1
2015-Feb-22 15:33N 55°43' E 007°01'6114.7
2015-Feb-22 11:24N 56°40' E 007°38'1914.6
2015-Feb-22 10:07N 56°56' E 007°55'4013.7
2015-Feb-22 07:12N 57°27' E 008°43'1314.7
2015-Feb-22 06:20N 57°34' E 009°01'4113.8
2015-Feb-22 03:23N 57°49' E 010°12'1214.5
2015-Feb-22 02:33N 57°49' E 010°35'1413.8
2015-Feb-22 01:33N 57°43' E 010°58'1615.5
2015-Feb-22 00:33N 57°33' E 011°19'1515.2
2015-Feb-21 23:33N 57°19' E 011°33'1615.8
2015-Feb-21 22:33N 57°04' E 011°42'1515.3
2015-Feb-21 21:33N 56°50' E 011°52'1515.1
2015-Feb-21 20:33N 56°35' E 011°58'1514.7
2015-Feb-21 19:32N 56°20' E 012°04'1413.9
2015-Feb-21 18:33N 56°12' E 012°22'1312.7
2015-Feb-21 17:33N 56°03' E 012°40'1414.2
2015-Feb-21 16:33N 55°49' E 012°46'1313.1
2015-Feb-21 15:33N 55°38' E 012°58'1 1.2
2015-Feb-21 14:33N 55°37' E 012°60'0 0.0
2015-Feb-21 13:33N 55°37' E 012°60'0 0.0
2015-Feb-21 12:33N 55°37' E 012°60'0 0.0
2015-Feb-21 11:33N 55°37' E 012°60'0 0.0
2015-Feb-21 10:33N 55°37' E 012°60'0 0.0
2015-Feb-21 09:33N 55°37' E 012°60'0 0.0
2015-Feb-21 08:33N 55°37' E 012°60'0 0.0
2015-Feb-21 07:33N 55°37' E 012°60'0 0.0
2015-Feb-21 06:33N 55°37' E 012°60'  
Track history (hours):
 
Tides and Currents Weather Stations Pressure Air Temp Water Temp Dewpoint Dewpoint Depression Visibility Wind Speed Wind Dir Waves Ship Positions

Georgia Highway

Last reported at 2015-Mar-03 06:29 UTC. Time now 2015-Mar-03 07:28 UTC.
Position N 36°32' W 009°06'.

Length 199 m; draft 9.2 m.

Type: Ship. MMSI: 432629000.

Date/timePositionNaut miles runAvg speedWind from/ knotsBaromVisibWave heightAir tempDewpointWater temp
2015-Mar-03 06:29N 36°32' W 009°06'1415.3
2015-Mar-03 05:33N 36°39' W 009°22'2214.9
2015-Mar-03 04:04N 36°58' W 009°35'1415.4
2015-Mar-03 03:08N 37°12' W 009°39'915.3
2015-Mar-03 02:33N 37°20' W 009°42'1615.1
2015-Mar-03 01:31N 37°36' W 009°47'1515.2
2015-Mar-03 00:32N 37°50' W 009°52'1515.2
2015-Mar-02 23:33N 38°05' W 009°56'1515.6
2015-Mar-02 22:34N 38°20' W 009°60'1615.6
2015-Mar-02 21:33N 38°35' W 010°05'1515.0
2015-Mar-02 20:33N 38°50' W 010°06'1515.2
2015-Mar-02 19:33N 39°05' W 010°07'1515.3
2015-Mar-02 18:32N 39°21' W 010°07'  
2015-Feb-28 10:33N 50°09' W 002°01'2115.3
2015-Feb-28 09:09N 50°15' W 001°29'1614.8
2015-Feb-28 08:06N 50°19' W 001°06'1114.2
2015-Feb-28 07:21N 50°22' W 000°49'1113.6
2015-Feb-28 06:32N 50°25' W 000°33'1813.3
2015-Feb-28 05:11N 50°29' W 000°05'813.1
2015-Feb-28 04:33N 50°32' E 000°07'1313.1
2015-Feb-28 03:33N 50°35' E 000°27'1413.6
2015-Feb-28 02:33N 50°40' E 000°47'1514.6
2015-Feb-28 01:33N 50°48' E 001°06'1515.0
2015-Feb-28 00:33N 50°59' E 001°23'1515.4
2015-Feb-27 23:34N 51°10' E 001°39'1414.3
2015-Feb-27 22:34N 51°21' E 001°54'1413.6
2015-Feb-27 21:33N 51°32' E 002°07'1413.7
2015-Feb-27 20:33N 51°43' E 002°20'1613.9
2015-Feb-27 19:24N 51°55' E 002°37'6015.3
2015-Feb-27 15:30N 52°43' E 003°37'1515.6
2015-Feb-27 14:33N 52°53' E 003°53'1514.9
2015-Feb-27 13:33N 53°03' E 004°12'1613.9
2015-Feb-27 12:26N 53°15' E 004°29'1314.1
2015-Feb-27 11:33N 53°27' E 004°35'1313.3
2015-Feb-27 10:33N 53°32' E 004°56'1414.3
2015-Feb-27 09:33N 53°38' E 005°18'1515.2
2015-Feb-27 08:33N 53°42' E 005°42'1615.5
2015-Feb-27 07:33N 53°47' E 006°07'1212.1
2015-Feb-27 06:33N 53°38' E 006°22'1413.5
2015-Feb-27 05:31N 53°32' E 006°44'1212.4
2015-Feb-27 04:33N 53°24' E 006°57'7 6.8
2015-Feb-27 03:33N 53°20' E 007°07'2 1.6
2015-Feb-27 02:27N 53°20' E 007°10'0 0.0
2015-Feb-27 01:33N 53°20' E 007°10'0 0.0
2015-Feb-27 00:33N 53°20' E 007°10'0 0.0
2015-Feb-26 23:27N 53°20' E 007°10'0 0.0
2015-Feb-26 22:33N 53°20' E 007°10'0 0.0
2015-Feb-26 21:33N 53°20' E 007°10'0 0.0
2015-Feb-26 20:30N 53°20' E 007°10'0 0.0
2015-Feb-26 19:33N 53°20' E 007°10'0 0.0
2015-Feb-26 18:33N 53°20' E 007°10'0 0.0
2015-Feb-26 17:33N 53°20' E 007°10'0 0.0
2015-Feb-26 16:33N 53°20' E 007°10'0 0.0
2015-Feb-26 15:30N 53°20' E 007°10'0 0.0
2015-Feb-26 14:33N 53°20' E 007°10'0 0.0
2015-Feb-26 13:33N 53°20' E 007°10'0 0.0
2015-Feb-26 12:33N 53°20' E 007°10'0 0.0
2015-Feb-26 11:33N 53°20' E 007°10'0 0.0
2015-Feb-26 10:33N 53°20' E 007°10'0 0.0
2015-Feb-26 09:30N 53°20' E 007°10'0 0.0
2015-Feb-26 08:33N 53°20' E 007°10'0 0.0
2015-Feb-26 07:33N 53°20' E 007°10'0 0.0
2015-Feb-26 06:33N 53°20' E 007°10'0 0.0
2015-Feb-26 05:33N 53°20' E 007°10'0 0.0
2015-Feb-26 04:33N 53°20' E 007°10'0 0.0
2015-Feb-26 03:33N 53°20' E 007°10'0 0.0
2015-Feb-26 02:33N 53°20' E 007°10'0 0.0
2015-Feb-26 01:30N 53°20' E 007°10'0 0.0
2015-Feb-26 00:33N 53°20' E 007°10'0 0.0
2015-Feb-25 23:27N 53°20' E 007°10'0 0.0
2015-Feb-25 22:33N 53°20' E 007°10'0 0.0
2015-Feb-25 21:33N 53°20' E 007°10'0 0.0
2015-Feb-25 20:30N 53°20' E 007°10'0 0.0
2015-Feb-25 19:33N 53°20' E 007°10'0 0.0
2015-Feb-25 18:30N 53°20' E 007°10'0 0.0
2015-Feb-25 17:33N 53°20' E 007°10'0 0.0
2015-Feb-25 16:33N 53°20' E 007°10'4 4.0
2015-Feb-25 15:33N 53°19' E 007°03'1111.3
2015-Feb-25 14:33N 53°28' E 006°51'8 7.6
2015-Feb-25 13:33N 53°33' E 006°41'9 8.5
2015-Feb-25 12:33N 53°37' E 006°28'8 8.2
2015-Feb-25 11:33N 53°38' E 006°15'10 9.5
2015-Feb-25 10:33N 53°42' E 006°00'7 7.2
2015-Feb-25 09:31N 53°47' E 006°10'3410.0
2015-Feb-25 06:06N 53°56' E 007°06'7 9.7
2015-Feb-25 05:22N 53°58' E 007°18'8 9.1
2015-Feb-25 04:31N 53°59' E 007°31'7 7.7
2015-Feb-25 03:33N 53°56' E 007°42'8 8.3
2015-Feb-25 02:32N 53°52' E 007°54'1313.0
2015-Feb-25 01:33N 53°45' E 008°12'1212.4
2015-Feb-25 00:33N 53°37' E 008°29'4 4.0
2015-Feb-24 23:33N 53°34' E 008°33'0 0.4
2015-Feb-24 22:31N 53°35' E 008°33'0 0.0
2015-Feb-24 21:31N 53°35' E 008°33'0 0.0
2015-Feb-24 20:31N 53°35' E 008°33'0 0.0
2015-Feb-24 19:31N 53°35' E 008°33'0 0.0
2015-Feb-24 18:31N 53°35' E 008°33'0 0.0
2015-Feb-24 17:31N 53°35' E 008°33'0 0.0
2015-Feb-24 16:31N 53°35' E 008°33'0 0.0
2015-Feb-24 15:31N 53°35' E 008°33'0 0.0
2015-Feb-24 14:31N 53°35' E 008°33'0 0.0
2015-Feb-24 13:31N 53°35' E 008°33'0 0.0
2015-Feb-24 12:31N 53°35' E 008°33'0 0.0
2015-Feb-24 11:31N 53°35' E 008°33'0 0.0
2015-Feb-24 10:31N 53°35' E 008°33'0 0.0
2015-Feb-24 09:31N 53°35' E 008°33'0 0.0
2015-Feb-24 08:31N 53°35' E 008°33'0 0.0
2015-Feb-24 07:31N 53°35' E 008°33'0 0.0
2015-Feb-24 06:31N 53°35' E 008°33'0 0.0
2015-Feb-24 05:31N 53°35' E 008°33'0 0.0
2015-Feb-24 04:31N 53°35' E 008°33'0 0.0
2015-Feb-24 03:31N 53°35' E 008°33'0 0.0
2015-Feb-24 02:31N 53°35' E 008°33'0 0.0
2015-Feb-24 01:31N 53°35' E 008°33'0 0.0
2015-Feb-24 00:31N 53°35' E 008°33'0 0.0
2015-Feb-23 23:31N 53°35' E 008°33'0 0.4
2015-Feb-23 22:33N 53°34' E 008°33'1 1.1
2015-Feb-23 21:33N 53°35' E 008°32'9 9.2
2015-Feb-23 20:33N 53°41' E 008°21'1111.2
2015-Feb-23 19:33N 53°49' E 008°07'1111.0
2015-Feb-23 18:33N 53°53' E 007°49'9 8.6
2015-Feb-23 17:33N 53°58' E 007°37'2 2.4
2015-Feb-23 16:33N 53°56' E 007°41'7 7.0
2015-Feb-23 15:32N 53°54' E 007°29'7 7.5
2015-Feb-23 14:33N 53°52' E 007°17'6 1.9
2015-Feb-23 11:16N 53°56' E 007°08'7 8.5
2015-Feb-23 10:26N 53°57' E 007°19'8 8.5
2015-Feb-23 09:31N 53°59' E 007°32'8 8.4
2015-Feb-23 08:31N 53°55' E 007°46'5 5.0
2015-Feb-23 07:31N 53°56' E 007°37'1313.1
2015-Feb-23 06:32N 53°53' E 007°16'3014.3
2015-Feb-23 04:27N 53°46' E 006°27'1111.8
2015-Feb-23 03:33N 53°46' E 006°09'6 5.7
2015-Feb-23 02:34N 53°50' E 006°15'3313.6
2015-Feb-23 00:09N 53°58' E 007°08'813.3
2015-Feb-22 23:32N 53°59' E 007°22'9 9.0
2015-Feb-22 22:33N 54°07' E 007°29'1414.4
2015-Feb-22 21:33N 54°20' E 007°19'1414.2
2015-Feb-22 20:33N 54°34' E 007°13'1413.9
2015-Feb-22 19:34N 54°47' E 007°07'1413.8
2015-Feb-22 18:33N 55°01' E 007°00'1413.8
2015-Feb-22 17:33N 55°14' E 006°60'1414.1
2015-Feb-22 16:33N 55°28' E 007°00'1414.1
2015-Feb-22 15:33N 55°43' E 007°01'6114.7
2015-Feb-22 11:24N 56°40' E 007°38'1914.6
2015-Feb-22 10:07N 56°56' E 007°55'4013.7
2015-Feb-22 07:12N 57°27' E 008°43'1314.7
2015-Feb-22 06:20N 57°34' E 009°01'4113.8
2015-Feb-22 03:23N 57°49' E 010°12'1214.5
2015-Feb-22 02:33N 57°49' E 010°35'1413.8
2015-Feb-22 01:33N 57°43' E 010°58'1615.5
2015-Feb-22 00:33N 57°33' E 011°19'1515.2
2015-Feb-21 23:33N 57°19' E 011°33'1615.8
2015-Feb-21 22:33N 57°04' E 011°42'1515.3
2015-Feb-21 21:33N 56°50' E 011°52'1515.1
2015-Feb-21 20:33N 56°35' E 011°58'1514.7
2015-Feb-21 19:32N 56°20' E 012°04'1413.9
2015-Feb-21 18:33N 56°12' E 012°22'1312.7
2015-Feb-21 17:33N 56°03' E 012°40'1414.2
2015-Feb-21 16:33N 55°49' E 012°46'1313.1
2015-Feb-21 15:33N 55°38' E 012°58'1 1.2
2015-Feb-21 14:33N 55°37' E 012°60'0 0.0
2015-Feb-21 13:33N 55°37' E 012°60'0 0.0
2015-Feb-21 12:33N 55°37' E 012°60'0 0.0
2015-Feb-21 11:33N 55°37' E 012°60'0 0.0
2015-Feb-21 10:33N 55°37' E 012°60'0 0.0
2015-Feb-21 09:33N 55°37' E 012°60'0 0.0
2015-Feb-21 08:33N 55°37' E 012°60'0 0.0
2015-Feb-21 07:33N 55°37' E 012°60'0 0.0
2015-Feb-21 06:33N 55°37' E 012°60'  

Dump ship's entire track history